createdAt,value
2023-10-12T00:01:59.561Z,43.04
2023-10-12T00:04:44.797Z,43.12
2023-10-12T00:07:16.626Z,43.45
2023-10-12T00:09:50.147Z,43.28
2023-10-12T00:12:22.580Z,43.33
2023-10-12T00:14:49.941Z,43.45
2023-10-12T00:17:20.372Z,43.51
2023-10-12T00:19:47.889Z,43.72
2023-10-12T00:22:16.677Z,43.91
2023-10-12T00:24:45.145Z,43.88
2023-10-12T00:27:14.033Z,44.06
2023-10-12T00:29:41.400Z,44.16
2023-10-12T00:32:11.792Z,44.34
2023-10-12T00:34:40.320Z,44.40
2023-10-12T00:37:09.319Z,44.52
2023-10-12T00:39:51.774Z,44.58
2023-10-12T00:42:21.067Z,44.67
2023-10-12T00:44:50.459Z,44.57
2023-10-12T00:47:30.413Z,44.61
2023-10-12T00:49:59.372Z,44.73
2023-10-12T00:52:36.466Z,44.77
2023-10-12T00:55:22.794Z,44.67
2023-10-12T00:57:51.686Z,44.70
2023-10-12T01:00:19.851Z,44.64
2023-10-12T01:03:07.168Z,44.70
2023-10-12T01:05:38.108Z,44.75
2023-10-12T01:08:05.816Z,44.62
2023-10-12T01:10:38.873Z,44.67
2023-10-12T01:13:06.059Z,44.80
2023-10-12T01:15:33.943Z,44.80
2023-10-12T01:18:01.327Z,44.70
2023-10-12T01:20:30.497Z,44.89
2023-10-12T01:22:58.989Z,44.88
2023-10-12T01:25:29.954Z,44.93
2023-10-12T01:27:57.452Z,44.89
2023-10-12T01:30:25.071Z,44.94
2023-10-12T01:32:58.941Z,45.03
2023-10-12T01:35:39.434Z,45.12
2023-10-12T01:38:09.347Z,45.15
2023-10-12T01:40:56.010Z,45.23
2023-10-12T01:43:24.392Z,45.28
2023-10-12T01:46:10.255Z,45.41
2023-10-12T01:48:38.515Z,45.42
2023-10-12T01:51:15.901Z,45.51
2023-10-12T01:53:43.446Z,45.59
2023-10-12T01:56:11.843Z,45.67
2023-10-12T01:58:39.350Z,45.76
2023-10-12T02:01:07.915Z,45.92
2023-10-12T02:03:43.808Z,46.04
2023-10-12T02:06:24.112Z,46.11
2023-10-12T02:08:54.127Z,46.16
2023-10-12T02:11:21.671Z,46.23
2023-10-12T02:13:49.507Z,46.32
2023-10-12T02:16:25.840Z,46.49
2023-10-12T02:18:56.589Z,46.58
2023-10-12T02:21:26.710Z,46.67
2023-10-12T02:23:54.364Z,46.80
2023-10-12T02:26:39.245Z,46.96
2023-10-12T02:29:10.438Z,47.01
2023-10-12T02:31:51.453Z,47.14
2023-10-12T02:34:19.495Z,47.26
2023-10-12T02:37:01.923Z,47.47
2023-10-12T02:39:38.877Z,47.56
2023-10-12T02:42:19.224Z,47.81
2023-10-12T02:44:56.202Z,47.89
2023-10-12T02:47:24.940Z,47.98
2023-10-12T02:50:01.825Z,48.07
2023-10-12T02:52:32.108Z,48.18
2023-10-12T02:55:08.253Z,48.29
2023-10-12T02:57:35.548Z,48.50
2023-10-12T03:00:21.029Z,48.54
2023-10-12T03:02:50.229Z,48.65
2023-10-12T03:05:31.942Z,48.91
2023-10-12T03:08:07.377Z,48.91
2023-10-12T03:10:36.981Z,49.10
2023-10-12T03:13:06.122Z,49.12
2023-10-12T03:15:43.828Z,49.21
2023-10-12T03:18:14.611Z,49.39
2023-10-12T03:21:01.813Z,49.43
2023-10-12T03:23:30.655Z,49.46
2023-10-12T03:25:57.864Z,49.64
2023-10-12T03:28:31.945Z,49.68
2023-10-12T03:31:18.057Z,49.76
2023-10-12T03:33:48.221Z,49.88
2023-10-12T03:36:24.671Z,50.03
2023-10-12T03:39:14.977Z,50.19
2023-10-12T03:42:05.256Z,50.24
2023-10-12T03:44:41.554Z,50.22
2023-10-12T03:47:17.167Z,50.34
2023-10-12T03:49:54.162Z,50.54
2023-10-12T03:52:43.909Z,50.68
2023-10-12T03:55:17.476Z,50.72
2023-10-12T03:58:00.855Z,50.89
2023-10-12T04:00:35.958Z,50.93
2023-10-12T04:05:57.793Z,51.15
2023-10-12T04:08:27.970Z,51.23
2023-10-12T04:10:58.063Z,51.16
2023-10-12T04:13:28.192Z,51.27
2023-10-12T04:18:43.917Z,51.31
2023-10-12T04:21:11.626Z,51.44
2023-10-12T04:24:05.219Z,51.45
2023-10-12T04:26:35.241Z,51.59
2023-10-12T04:29:09.270Z,51.63
2023-10-12T04:31:50.492Z,51.60
2023-10-12T04:34:27.326Z,51.65
2023-10-12T04:37:10.753Z,51.70
2023-10-12T04:39:38.680Z,51.61
2023-10-12T04:42:13.581Z,51.51
2023-10-12T04:44:53.618Z,51.30
2023-10-12T04:47:24.993Z,51.20
2023-10-12T04:49:52.344Z,50.96
2023-10-12T04:52:25.980Z,50.67
2023-10-12T04:55:14.969Z,50.36
2023-10-12T04:57:43.091Z,49.66
2023-10-12T05:00:26.142Z,49.47
2023-10-12T05:02:56.277Z,48.79
2023-10-12T05:05:24.400Z,48.18
2023-10-12T05:07:55.867Z,47.62
2023-10-12T05:10:28.612Z,46.71
2023-10-12T05:13:05.150Z,45.87
2023-10-12T05:15:41.445Z,45.47
2023-10-12T05:18:09.391Z,44.63
2023-10-12T05:20:37.127Z,44.11
2023-10-12T05:23:04.654Z,44.08
2023-10-12T05:25:49.291Z,44.00
2023-10-12T05:28:19.193Z,44.02
2023-10-12T05:30:56.872Z,44.17
2023-10-12T05:33:36.525Z,44.33
2023-10-12T05:36:12.957Z,44.43
2023-10-12T05:38:40.998Z,44.68
2023-10-12T05:41:12.148Z,44.68
2023-10-12T05:43:41.357Z,44.78
2023-10-12T05:46:15.292Z,45.06
2023-10-12T05:48:53.085Z,45.20
2023-10-12T05:51:22.786Z,45.09
2023-10-12T05:53:50.223Z,45.27
2023-10-12T05:56:18.987Z,45.48
2023-10-12T05:58:46.223Z,45.89
2023-10-12T06:04:10.053Z,45.76
2023-10-12T06:06:43.199Z,45.90
2023-10-12T06:09:14.985Z,46.39
2023-10-12T06:11:43.340Z,46.65
2023-10-12T06:14:10.989Z,46.69
2023-10-12T06:16:41.842Z,46.62
2023-10-12T06:19:19.568Z,46.67
2023-10-12T06:21:47.344Z,46.74
2023-10-12T06:24:22.037Z,46.57
2023-10-12T06:26:49.622Z,46.80
2023-10-12T06:29:25.930Z,46.94
2023-10-12T06:31:54.973Z,46.91
2023-10-12T06:34:23.351Z,46.89
2023-10-12T06:36:59.514Z,46.84
2023-10-12T06:39:26.931Z,46.87
2023-10-12T06:41:54.238Z,47.03
2023-10-12T06:44:27.738Z,47.08
2023-10-12T06:47:16.683Z,47.00
2023-10-12T06:49:45.412Z,46.81
2023-10-12T06:52:15.344Z,46.77
2023-10-12T06:54:50.880Z,46.58
2023-10-12T06:57:18.357Z,46.38
2023-10-12T07:00:01.358Z,46.33
2023-10-12T07:02:30.075Z,46.09
2023-10-12T07:05:02.823Z,46.01
2023-10-12T07:07:38.348Z,46.03
2023-10-12T07:10:12.233Z,45.90
2023-10-12T07:12:48.837Z,45.84
2023-10-12T07:15:23.667Z,45.85
2023-10-12T07:17:51.558Z,45.86
2023-10-12T07:20:28.660Z,45.87
2023-10-12T07:22:56.767Z,45.77
2023-10-12T07:25:26.335Z,45.73
2023-10-12T07:28:02.835Z,45.87
2023-10-12T07:30:37.548Z,45.58
2023-10-12T07:33:08.996Z,45.66
2023-10-12T07:35:37.136Z,45.37
2023-10-12T07:38:13.986Z,45.05
2023-10-12T07:41:02.370Z,44.82
2023-10-12T07:43:32.705Z,44.90
2023-10-12T07:46:26.702Z,44.71
2023-10-12T07:48:54.431Z,44.40
2023-10-12T07:51:27.697Z,44.32
2023-10-12T07:54:01.715Z,43.86
2023-10-12T07:56:35.897Z,43.58
2023-10-12T07:59:03.436Z,43.50
2023-10-12T08:01:30.841Z,43.27
2023-10-12T08:04:01.769Z,43.21
2023-10-12T08:06:35.308Z,43.19
2023-10-12T08:09:21.010Z,42.38
2023-10-12T08:11:48.401Z,42.20
2023-10-12T08:14:24.802Z,41.99
2023-10-12T08:17:11.304Z,41.79
2023-10-12T08:19:44.517Z,42.10
2023-10-12T08:22:27.467Z,42.28
2023-10-12T08:24:58.146Z,42.45
2023-10-12T08:27:27.117Z,42.33
2023-10-12T08:29:54.396Z,42.55
2023-10-12T08:32:27.813Z,42.64
2023-10-12T08:35:01.735Z,42.21
2023-10-12T08:37:29.147Z,42.38
2023-10-12T08:39:59.514Z,42.21
2023-10-12T08:42:33.584Z,41.62
2023-10-12T08:45:16.740Z,41.40
2023-10-12T08:47:50.291Z,41.09
2023-10-12T08:50:17.793Z,40.85
2023-10-12T08:52:51.945Z,40.54
2023-10-12T08:55:26.608Z,40.68
2023-10-12T08:58:16.758Z,40.52
2023-10-12T09:01:02.498Z,39.84
2023-10-12T09:03:33.858Z,39.91
2023-10-12T09:06:03.317Z,40.00
2023-10-12T09:08:30.512Z,39.88
2023-10-12T09:11:09.752Z,39.97
2023-10-12T09:13:38.135Z,39.80
2023-10-12T09:16:08.501Z,39.99
2023-10-12T09:18:45.363Z,39.57
2023-10-12T09:21:39.738Z,39.34
2023-10-12T09:24:29.218Z,39.20
2023-10-12T09:27:01.854Z,38.99
2023-10-12T09:29:32.325Z,39.44
2023-10-12T09:32:16.978Z,39.17
2023-10-12T09:34:57.158Z,39.04
2023-10-12T09:37:30.098Z,38.94
2023-10-12T09:39:57.582Z,38.81
2023-10-12T09:42:28.470Z,38.57
2023-10-12T09:45:03.091Z,38.64
2023-10-12T09:47:51.847Z,38.41
2023-10-12T09:50:20.173Z,38.59
2023-10-12T09:52:58.826Z,38.32
2023-10-12T09:55:33.635Z,38.07
2023-10-12T09:58:13.907Z,38.12
2023-10-12T10:01:00.392Z,38.10
2023-10-12T10:03:38.889Z,38.21
2023-10-12T10:06:20.156Z,37.78
2023-10-12T10:09:01.397Z,38.09
2023-10-12T10:11:28.797Z,37.72
2023-10-12T10:13:56.180Z,37.76
2023-10-12T10:16:23.532Z,37.82
2023-10-12T10:18:58.419Z,37.85
2023-10-12T10:21:32.213Z,37.88
2023-10-12T10:24:00.275Z,37.56
2023-10-12T10:26:35.657Z,37.82
2023-10-12T10:29:06.389Z,37.70
2023-10-12T10:31:35.353Z,37.78
2023-10-12T10:34:06.493Z,37.93
2023-10-12T10:36:37.641Z,37.96
2023-10-12T10:39:37.557Z,37.71
2023-10-12T10:42:09.482Z,37.48
2023-10-12T10:44:43.271Z,37.50
2023-10-12T10:47:16.930Z,37.60
2023-10-12T10:49:50.063Z,37.25
2023-10-12T10:52:21.923Z,37.63
2023-10-12T10:54:58.403Z,37.58
2023-10-12T10:57:39.485Z,37.73
2023-10-12T11:00:18.427Z,37.85
2023-10-12T11:02:48.931Z,37.81
2023-10-12T11:05:20.761Z,37.91
2023-10-12T11:07:53.880Z,38.01
2023-10-12T11:10:33.010Z,37.85
2023-10-12T11:13:02.294Z,38.11
2023-10-12T11:15:29.953Z,38.04
2023-10-12T11:17:57.878Z,37.89
2023-10-12T11:20:28.807Z,37.79
2023-10-12T11:22:56.324Z,37.80
2023-10-12T11:25:23.552Z,37.84
2023-10-12T11:27:52.766Z,37.71
2023-10-12T11:30:33.355Z,37.65
2023-10-12T11:33:01.566Z,37.72
2023-10-12T11:35:42.612Z,37.52
2023-10-12T11:38:19.023Z,37.43
2023-10-12T11:40:53.721Z,37.63
2023-10-12T11:43:22.674Z,37.60
2023-10-12T11:46:03.523Z,37.44
2023-10-12T11:48:31.816Z,37.38
2023-10-12T11:51:01.436Z,37.23
2023-10-12T11:53:29.780Z,37.12
2023-10-12T11:56:14.504Z,36.92
2023-10-12T11:58:42.470Z,36.76
2023-10-12T12:01:11.462Z,36.61
2023-10-12T12:03:42.100Z,36.74
2023-10-12T12:06:22.654Z,36.92
2023-10-12T12:08:50.611Z,36.82
2023-10-12T12:11:21.422Z,36.82
2023-10-12T12:13:49.386Z,36.81
2023-10-12T12:16:21.493Z,37.13
2023-10-12T12:18:53.382Z,37.13
2023-10-12T12:21:30.542Z,37.14
2023-10-12T12:24:02.234Z,37.12
2023-10-12T12:26:35.036Z,36.85
2023-10-12T12:29:06.290Z,37.16
2023-10-12T12:31:34.017Z,37.17
2023-10-12T12:34:07.740Z,37.20
2023-10-12T12:36:35.281Z,37.13
2023-10-12T12:39:10.368Z,37.14
2023-10-12T12:41:37.953Z,37.22
2023-10-12T12:44:09.625Z,36.78
2023-10-12T12:46:38.575Z,36.97
2023-10-12T12:49:08.241Z,37.13
2023-10-12T12:51:36.153Z,36.98
2023-10-12T12:54:03.807Z,36.85
2023-10-12T12:56:31.050Z,36.75
2023-10-12T12:58:58.268Z,36.82
2023-10-12T13:01:26.249Z,36.85
2023-10-12T13:03:56.679Z,36.80
2023-10-12T13:06:25.242Z,36.83
2023-10-12T13:08:52.743Z,36.83
2023-10-12T13:11:20.793Z,37.19
2023-10-12T13:13:51.658Z,37.28
2023-10-12T13:16:19.127Z,37.38
2023-10-12T13:18:50.066Z,37.57
2023-10-12T13:21:18.066Z,38.00
2023-10-12T13:23:46.392Z,37.95
2023-10-12T13:26:15.505Z,38.12
2023-10-12T13:28:43.785Z,38.24
2023-10-12T13:31:14.607Z,38.35
2023-10-12T13:33:45.102Z,38.54
2023-10-12T13:36:12.758Z,38.72
2023-10-12T13:38:40.973Z,38.69
2023-10-12T13:41:12.629Z,39.01
2023-10-12T13:43:40.635Z,38.96
2023-10-12T13:46:12.751Z,38.83
2023-10-12T13:48:42.405Z,38.79
2023-10-12T13:51:14.460Z,38.91
2023-10-12T13:53:42.692Z,38.95
2023-10-12T13:56:10.878Z,39.07
2023-10-12T13:58:43.414Z,38.93
2023-10-12T14:01:16.067Z,39.06
2023-10-12T14:03:47.019Z,39.20
2023-10-12T14:06:14.693Z,39.13
2023-10-12T14:08:42.369Z,39.37
2023-10-12T14:11:17.540Z,39.58
2023-10-12T14:13:45.427Z,39.70
2023-10-12T14:16:13.271Z,39.84
2023-10-12T14:18:40.921Z,39.99
2023-10-12T14:21:11.507Z,40.32
2023-10-12T14:23:41.743Z,40.31
2023-10-12T14:26:10.990Z,40.18
2023-10-12T14:28:39.905Z,40.31
2023-10-12T14:31:07.488Z,40.44
2023-10-12T14:33:36.365Z,40.51
2023-10-12T14:36:06.926Z,40.74
2023-10-12T14:38:35.947Z,40.69
2023-10-12T14:41:11.282Z,40.82
2023-10-12T14:43:39.146Z,40.85
2023-10-12T14:46:06.923Z,41.02
2023-10-12T14:48:34.364Z,41.22
2023-10-12T14:51:09.683Z,41.19
2023-10-12T14:53:37.441Z,41.21
2023-10-12T14:56:05.216Z,41.51
2023-10-12T14:58:32.746Z,41.54
2023-10-12T15:01:00.782Z,41.81
2023-10-12T15:03:35.797Z,41.70
2023-10-12T15:06:04.174Z,41.87
2023-10-12T15:08:31.926Z,42.17
2023-10-12T15:11:00.914Z,42.15
2023-10-12T15:13:28.441Z,42.31
2023-10-12T15:15:58.416Z,42.41
2023-10-12T15:18:26.351Z,42.70
2023-10-12T15:21:02.737Z,42.78
2023-10-12T15:23:36.345Z,42.72
2023-10-12T15:26:03.619Z,42.88
2023-10-12T15:28:30.896Z,43.10
2023-10-12T15:30:58.265Z,43.24
2023-10-12T15:33:26.492Z,43.43
2023-10-12T15:35:53.781Z,43.56
2023-10-12T15:38:20.989Z,43.65
2023-10-12T15:40:48.193Z,43.68
2023-10-12T15:43:18.378Z,43.81
2023-10-12T15:45:48.052Z,43.89
2023-10-12T15:48:15.701Z,44.04
2023-10-12T15:50:43.063Z,44.22
2023-10-12T15:53:10.875Z,44.60
2023-10-12T15:55:40.492Z,44.58
2023-10-12T15:58:13.054Z,44.65
2023-10-12T16:00:40.659Z,44.89
2023-10-12T16:03:08.404Z,45.08
2023-10-12T16:05:36.118Z,45.15
2023-10-12T16:08:11.963Z,45.30
2023-10-12T16:10:39.573Z,45.48
2023-10-12T16:13:09.976Z,45.58
2023-10-12T16:15:40.310Z,45.88
2023-10-12T16:18:09.800Z,45.82
2023-10-12T16:20:37.099Z,46.00
2023-10-12T16:23:04.575Z,46.19
2023-10-12T16:25:32.284Z,46.27
2023-10-12T16:27:59.903Z,46.33
2023-10-12T16:30:31.471Z,46.55
2023-10-12T16:32:59.012Z,46.56
2023-10-12T16:36:34.185Z,46.78
2023-10-12T16:39:01.666Z,46.86
2023-10-12T16:41:29.199Z,47.06
2023-10-12T16:43:57.992Z,47.14
2023-10-12T16:46:26.048Z,47.25
2023-10-12T16:48:53.716Z,47.36
2023-10-12T16:51:21.405Z,47.41
2023-10-12T16:53:48.813Z,47.58
2023-10-12T16:56:16.149Z,47.61
2023-10-12T16:58:43.393Z,47.82
2023-10-12T17:01:12.496Z,47.99
2023-10-12T17:03:40.224Z,48.01
2023-10-12T17:06:07.818Z,48.14
2023-10-12T17:08:35.501Z,48.37
2023-10-12T17:11:02.805Z,48.51
2023-10-12T17:13:30.414Z,48.58
2023-10-12T17:15:58.731Z,48.69
2023-10-12T17:18:26.940Z,48.88
2023-10-12T17:20:54.680Z,48.72
2023-10-12T17:23:29.202Z,49.11
2023-10-12T17:26:00.310Z,49.39
2023-10-12T17:28:31.761Z,49.30
2023-10-12T17:31:07.352Z,49.54
2023-10-12T17:33:36.627Z,49.71
2023-10-12T17:36:12.603Z,49.99
2023-10-12T17:38:40.316Z,49.98
2023-10-12T17:41:07.638Z,49.99
2023-10-12T17:43:34.984Z,50.30
2023-10-12T17:46:02.845Z,50.25
2023-10-12T17:48:30.164Z,50.48
2023-10-12T17:50:59.148Z,50.51
2023-10-12T17:53:28.564Z,50.59
2023-10-12T17:55:56.541Z,50.79
2023-10-12T17:58:25.296Z,50.78
2023-10-12T18:00:52.946Z,51.00
2023-10-12T18:03:20.584Z,50.85
2023-10-12T18:05:54.204Z,51.06
2023-10-12T18:08:21.479Z,51.12
2023-10-12T18:10:49.170Z,51.28
2023-10-12T18:13:18.157Z,51.29
2023-10-12T18:15:49.220Z,51.22
2023-10-12T18:18:16.508Z,51.38
2023-10-12T18:20:46.735Z,51.43
2023-10-12T18:23:17.187Z,51.57
2023-10-12T18:25:44.617Z,51.58
2023-10-12T18:28:17.751Z,51.72
2023-10-12T18:30:46.093Z,51.79
2023-10-12T18:33:13.537Z,51.77
2023-10-12T18:35:50.243Z,51.91
2023-10-12T18:38:17.783Z,52.00
2023-10-12T18:40:45.067Z,51.96
2023-10-12T18:43:15.388Z,52.01
2023-10-12T18:45:55.912Z,51.91
2023-10-12T18:48:24.783Z,52.03
2023-10-12T18:51:01.822Z,51.99
2023-10-12T18:53:29.855Z,52.06
2023-10-12T18:56:04.531Z,52.29
2023-10-12T18:58:32.651Z,52.37
2023-10-12T19:01:00.346Z,52.28
2023-10-12T19:03:31.199Z,52.51
2023-10-12T19:06:01.808Z,52.45
2023-10-12T19:08:29.169Z,52.55
2023-10-12T19:10:57.180Z,52.66
2023-10-12T19:13:25.876Z,52.66
2023-10-12T19:15:54.060Z,52.86
2023-10-12T19:18:22.797Z,52.77
2023-10-12T19:20:59.188Z,52.84
2023-10-12T19:23:27.315Z,52.93
2023-10-12T19:25:57.057Z,53.02
2023-10-12T19:28:28.194Z,53.04
2023-10-12T19:30:57.490Z,53.19
2023-10-12T19:33:24.930Z,52.92
2023-10-12T19:35:52.472Z,53.11
2023-10-12T19:38:22.744Z,53.02
2023-10-12T19:40:49.984Z,53.20
2023-10-12T19:43:18.604Z,53.09
2023-10-12T19:45:46.201Z,53.23
2023-10-12T19:48:15.007Z,53.23
2023-10-12T19:50:44.079Z,53.15
2023-10-12T19:53:15.490Z,53.25
2023-10-12T19:55:42.848Z,53.29
2023-10-12T19:58:10.857Z,53.30
2023-10-12T20:00:40.961Z,53.30
2023-10-12T20:03:17.831Z,53.41
2023-10-12T20:05:49.250Z,53.44
2023-10-12T20:08:17.521Z,53.41
2023-10-12T20:10:52.662Z,53.50
2023-10-12T20:13:21.035Z,53.53
2023-10-12T20:15:49.858Z,53.58
2023-10-12T20:18:17.598Z,53.56
2023-10-12T20:20:45.176Z,53.60
2023-10-12T20:23:15.316Z,53.52
2023-10-12T20:25:49.108Z,53.66
2023-10-12T20:28:17.372Z,53.79
2023-10-12T20:30:48.675Z,53.56
2023-10-12T20:33:17.320Z,53.87
2023-10-12T20:35:48.127Z,53.83
2023-10-12T20:38:16.975Z,53.85
2023-10-12T20:40:45.965Z,53.93
2023-10-12T20:43:16.761Z,53.82
2023-10-12T20:45:55.619Z,54.04
2023-10-12T20:48:23.904Z,54.20
2023-10-12T20:50:58.286Z,54.12
2023-10-12T20:53:25.565Z,54.53
2023-10-12T20:55:53.113Z,54.44
2023-10-12T20:58:24.318Z,54.61
2023-10-12T21:00:53.032Z,54.85
2023-10-12T21:03:23.263Z,55.11
2023-10-12T21:05:51.158Z,55.38
2023-10-12T21:08:21.246Z,55.59
2023-10-12T21:10:59.220Z,55.80
2023-10-12T21:13:27.467Z,56.10
2023-10-12T21:15:55.197Z,56.31
2023-10-12T21:18:35.469Z,56.35
2023-10-12T21:21:10.997Z,56.52
2023-10-12T21:23:47.480Z,56.90
2023-10-12T21:26:36.568Z,57.10
2023-10-12T21:29:12.592Z,57.27
2023-10-12T21:31:43.456Z,57.48
2023-10-12T21:34:14.449Z,57.62
2023-10-12T21:36:43.480Z,57.84
2023-10-12T21:39:12.576Z,58.02
2023-10-12T21:41:39.963Z,58.10
2023-10-12T21:44:11.048Z,58.00
2023-10-12T21:46:45.088Z,58.14
2023-10-12T21:49:12.539Z,58.22
2023-10-12T21:51:39.945Z,58.48
2023-10-12T21:54:07.209Z,58.55
2023-10-12T21:56:35.116Z,58.57
2023-10-12T21:59:02.920Z,58.98
2023-10-12T22:01:36.778Z,59.19
2023-10-12T22:04:05.489Z,59.36
2023-10-12T22:06:34.140Z,59.42
2023-10-12T22:09:02.824Z,59.63
2023-10-12T22:11:35.063Z,59.56
2023-10-12T22:14:16.862Z,59.78
2023-10-12T22:16:51.203Z,60.08
2023-10-12T22:19:22.360Z,60.22
2023-10-12T22:21:49.990Z,60.53
2023-10-12T22:24:17.670Z,60.96
2023-10-12T22:26:44.998Z,61.97
2023-10-12T22:29:12.310Z,62.78
2023-10-12T22:31:39.635Z,63.66
2023-10-12T22:34:09.919Z,64.41
2023-10-12T22:36:37.521Z,65.09
2023-10-12T22:39:16.774Z,65.85
2023-10-12T22:41:44.359Z,66.42
2023-10-12T22:44:11.564Z,67.01
2023-10-12T22:46:38.877Z,67.52
2023-10-12T22:49:07.278Z,68.18
2023-10-12T22:51:38.178Z,69.18
2023-10-12T22:54:06.277Z,70.10
2023-10-12T22:56:34.446Z,70.75
2023-10-12T22:59:01.708Z,71.31
2023-10-12T23:01:29.836Z,72.13
2023-10-12T23:03:57.414Z,73.23
2023-10-12T23:06:24.658Z,74.21
2023-10-12T23:08:51.899Z,75.01
2023-10-12T23:11:19.609Z,75.75
2023-10-12T23:13:51.723Z,76.57
2023-10-12T23:16:31.780Z,77.18
2023-10-12T23:19:02.122Z,77.87
2023-10-12T23:21:39.803Z,78.41
2023-10-12T23:24:13.326Z,79.25
2023-10-12T23:26:40.647Z,80.06
2023-10-12T23:29:08.708Z,80.75
2023-10-12T23:31:42.214Z,81.29
2023-10-12T23:34:22.096Z,81.87
2023-10-12T23:37:08.854Z,82.48
2023-10-12T23:39:53.718Z,83.00
2023-10-12T23:42:23.353Z,83.58
2023-10-12T23:44:50.871Z,84.11
2023-10-12T23:47:25.031Z,84.54
2023-10-12T23:50:10.870Z,84.91
2023-10-12T23:52:57.048Z,85.52
2023-10-12T23:55:31.166Z,86.08
2023-10-12T23:58:02.183Z,86.64
